Flight Track Log - Related Links

Times and Time Zones

All times are in EDT time to prevent confusion due to time zone crossing. See the EJM410 flight status page for this flight to view local times or setup timezone preferences in your user account.

Time Position Orientation Groundspeed Altitude Reporting Facility
EDT Latitude Longitude Course Direction KTS MPH feet Rate Location/Type
Sat 02:09:59 PM 48.1333 -66.1333 53° Northeast 360 414 8,100  Level Gander Center
Sat 02:10:23 PM 48.1500 -66.1000 53° Northeast 320 368 9,700 2,143 Climbing Moncton Center
Sat 02:11:23 PM 48.2167 -66.0333 34° Northeast 320 368 11,100 1,600 Climbing Moncton Center
Sat 02:12:23 PM 48.3333 -65.9500 25° Northeast 380 437 12,900 2,000 Climbing Moncton Center
Sat 02:13:23 PM 48.4333 -65.8333 38° Northeast 410 472 15,100 1,300 Climbing Moncton Center
Sat 02:14:23 PM 48.5167 -65.7667 28° Northeast 410 472 15,500 1,910 Climbing Moncton Center
Sat 02:16:44 PM 48.7667 -65.4667 38° Northeast 470 541 21,500 2,345 Climbing Montreal Center
Sat 02:17:40 PM 48.8667 -65.3833 29° Northeast 560 644 23,200 1,840 Climbing Moncton Center
Sat 02:17:59 PM 48.9167 -65.3500 24° Northeast 490 564 23,800 1,671 Climbing Gander Center
Sat 02:18:59 PM 49.0167 -65.2333 37° Northeast 500 575 25,400 1,500 Climbing Gander Center
Sat 02:19:59 PM 49.1333 -65.1167 33° Northeast 510 587 26,800 1,248 Climbing Gander Center
Sat 02:20:40 PM 49.2167 -65.0167 38° Northeast 520 598 27,500 1,129 Climbing Moncton Center
Sat 02:21:40 PM 49.3500 -64.8833 33° Northeast 540 621 28,700 1,200 Climbing Moncton Center
Sat 02:22:40 PM 49.4667 -64.7500 37° Northeast 550 633 29,900 1,250 Climbing Moncton Center
Sat 02:23:40 PM 49.6000 -64.6000 36° Northeast 560 644 31,200 1,215 Climbing Moncton Center
Sat 02:23:59 PM 49.6500 -64.5667 23° Northeast 560 644 31,500 1,291 Climbing Gander Center
Sat 02:24:59 PM 49.7833 -64.4333 33° Northeast 570 656 32,900 1,426 Climbing Gander Center
Sat 02:25:40 PM 49.8667 -64.3167 42° Northeast 570 656 33,900 1,366 Climbing Moncton Center
Sat 02:26:40 PM 49.9667 -64.1333 50° Northeast 570 656 35,200 1,400 Climbing Moncton Center
Sat 02:27:40 PM 50.0667 -63.9333 52° Northeast 570 656 36,700 1,443 Climbing Moncton Center
Sat 02:27:59 PM 50.0833 -63.8667 69° East 560 644 37,100 1,367 Climbing Gander Center
Sat 02:28:59 PM 50.1833 -63.6833 50° Northeast 560 644 38,500 1,129 Climbing Gander Center
Sat 02:29:40 PM 50.2333 -63.5667 56° Northeast 560 644 39,000 500 Climbing Moncton Center
Sat 02:29:59 PM 50.2667 -63.5000 52° Northeast 550 633 39,000 600 Level Gander Center
Sat 02:30:40 PM 50.3333 -63.3500 55° Northeast 550 633 39,600 900 Climbing Moncton Center
Sat 02:30:59 PM 50.3667 -63.3000 44° Northeast 560 644 39,900 1,000 Climbing Gander Center
Sat 02:31:40 PM 50.4167 -63.1667 59° Northeast 550 633 40,600 1,000 Climbing Moncton Center
Sat 02:31:59 PM 50.4500 -63.1167 44° Northeast 550 633 40,900 304 Climbing Gander Center
Sat 02:32:59 PM 50.5667 -62.9167 47° Northeast 540 621 41,000 59 Climbing Gander Center
Sat 02:33:40 PM 50.6167 -62.7833 59° Northeast 530 610 41,000  Level Moncton Center
Sat 02:33:59 PM 50.6500 -62.7333 44° Northeast 530 610 41,000  Level Gander Center
Sat 02:34:40 PM 50.7000 -62.6000 59° Northeast 530 610 41,000  Level Moncton Center
Sat 02:35:40 PM 50.8000 -62.4167 49° Northeast 540 621 41,000  Level Moncton Center
Sat 02:35:59 PM 50.8167 -62.3667 62° Northeast 540 621 41,000  Level Gander Center
Sat 02:36:40 PM 50.8833 -62.2167 55° Northeast 540 621 41,000  Level Moncton Center
Sat 02:36:59 PM 50.9167 -62.1500 52° Northeast 540 621 41,000  Level Gander Center
Sat 02:37:40 PM 50.9500 -62.0333 66° East 540 621 41,000  Level Moncton Center
Sat 02:38:40 PM 51.0500 -61.8333 51° Northeast 540 621 41,000  Level Moncton Center
Sat 02:38:59 PM 51.0833 -61.7833 43° Northeast 540 621 41,000  Level Gander Center
Sat 02:39:40 PM 51.1500 -61.6500 51° Northeast 540 621 41,000  Level Moncton Center
Sat 02:40:40 PM 51.2500 -61.4333 54° Northeast 550 633 41,000  Level Moncton Center
Sat 02:41:40 PM 51.3167 -61.2667 57° Northeast 540 621 41,000  Level Moncton Center
Sat 02:41:59 PM 51.3500 -61.2000 51° Northeast 550 633 41,000  Level Gander Center
Sat 02:42:40 PM 51.4167 -61.0500 54° Northeast 540 621 41,000  Level Moncton Center
Sat 02:42:59 PM 51.4333 -60.9833 68° East 540 621 41,000  Level Gander Center
Sat 02:43:40 PM 51.5000 -60.8500 51° Northeast 540 621 41,000  Level Moncton Center
Sat 02:44:40 PM 51.5833 -60.6500 56° Northeast 540 621 41,000  Level Moncton Center
Sat 02:44:59 PM 51.6167 -60.5833 51° Northeast 540 621 41,000  Level Gander Center
Sat 02:45:40 PM 51.6833 -60.4500 51° Northeast 540 621 41,000  Level Moncton Center
Sat 02:46:40 PM 51.7667 -60.2667 54° Northeast 540 621 41,000  Level Moncton Center
Sat 02:47:40 PM 51.8500 -60.0667 56° Northeast 540 621 41,000  Level Moncton Center
Sat 02:47:59 PM 51.8833 -60.0167 43° Northeast 540 621 41,000  Level Gander Center
Sat 02:48:36 PM 51.9333 -59.8667 62° Northeast 540 621 41,000  Level Gander Center
Sat 02:49:36 PM 52.0167 -59.6833 54° Northeast 550 633 41,000  Level Gander Center
Sat 02:49:59 PM 52.0667 -59.6000 46° Northeast 550 633 41,000  Level Gander Center
Sat 02:50:59 PM 52.1500 -59.4000 56° Northeast 550 633 41,000  Level Gander Center
Sat 02:51:59 PM 52.2167 -59.1833 63° Northeast 550 633 41,000  Level Gander Center
Sat 02:52:59 PM 52.3000 -58.9833 56° Northeast 550 633 41,000  Level Gander Center
Sat 02:53:59 PM 52.4000 -58.7667 53° Northeast 550 633 41,000  Level Gander Center
Sat 02:54:59 PM 52.4833 -58.5667 56° Northeast 550 633 41,000  Level Gander Center
Sat 02:55:59 PM 52.5667 -58.3333 59° Northeast 560 644 41,000  Level Gander Center
Sat 02:56:59 PM 52.6500 -58.1333 55° Northeast 550 633 41,000  Level Gander Center
Sat 02:57:40 PM 52.7000 -57.9833 61° Northeast 560 644 41,000  Level Moncton Center
Sat 02:58:40 PM 52.7833 -57.7500 59° Northeast 560 644 41,000  Level Moncton Center
Sat 02:58:59 PM 52.8167 -57.7167 31° Northeast 560 644 41,000  Level Gander Center
Sat 02:59:59 PM 52.9000 -57.4833 59° Northeast 560 644 41,000  Level Gander Center
Sat 03:00:40 PM 52.9667 -57.3333 54° Northeast 560 644 41,000  Level Moncton Center
Sat 03:00:59 PM 53.0000 -57.2500 56° Northeast 560 644 41,000  Level Gander Center
Sat 03:01:59 PM 53.0667 -57.0500 61° Northeast 550 633 41,000  Level Gander Center
Sat 03:02:59 PM 53.1667 -56.8167 54° Northeast 550 633 41,000  Level Gander Center
Sat 03:03:59 PM 53.2333 -56.6167 61° Northeast 550 633 41,000  Level Gander Center
Sat 03:04:40 PM 53.3000 -56.4667 53° Northeast 550 633 41,000  Level Moncton Center
Sat 03:05:40 PM 53.3667 -56.2667 61° Northeast 550 633 41,000  Level Moncton Center
Sat 03:05:59 PM 53.4000 -56.1833 56° Northeast 550 633 41,000  Level Gander Center
Sat 03:06:59 PM 53.5000 -55.9333 56° Northeast 550 633 41,000  Level Gander Center
Sat 03:07:40 PM 53.5500 -55.8000 58° Northeast 550 633 41,000  Level Moncton Center
Sat 03:08:40 PM 53.6333 -55.5667 59° Northeast 550 633 41,000  Level Moncton Center
Sat 03:08:59 PM 53.6500 -55.5333 50° Northeast 550 633 41,000  Level Gander Center
Sat 03:09:40 PM 53.7000 -55.3500 65° Northeast 550 633 41,000  Level Moncton Center
Sat 03:09:59 PM 53.7333 -55.2833 50° Northeast 550 633 41,000  Level Gander Center
Sat 03:10:59 PM 53.8000 -55.0833 60° Northeast 550 633 41,000  Level Gander Center
Sat 03:11:59 PM 53.8833 -54.8333 60° Northeast 550 633 41,000  Level Gander Center
Sat 03:12:59 PM 53.9333 -54.6000 70° East 560 644 41,000  Level Gander Center
Sat 03:13:59 PM 54.0000 -54.3667 64° Northeast 550 633 41,000  Level Gander Center
Sat 03:14:59 PM 54.0500 -54.1333 70° East 550 633 41,000  Level Gander Center
Sat 03:15:59 PM 54.1167 -53.8500 68° East 550 633 41,000  Level Gander Center
Sat 03:16:59 PM 54.1833 -53.6500 60° Northeast 550 633 41,000  Level Gander Center
Sat 03:17:59 PM 54.2333 -53.4167 70° East 550 633 41,000  Level Gander Center
Sat 03:18:59 PM 54.2833 -53.1333 73° East 550 633 41,000  Level Gander Center
Sat 03:19:59 PM 54.3500 -52.9000 64° Northeast 550 633 41,000  Level Gander Center
Sat 03:20:36 PM 54.3833 -52.7500 69° East 560 644 41,000  Level Gander Center
Sat 03:21:36 PM 54.4333 -52.5000 71° East 560 644 41,000  Level Gander Center
Sat 03:21:59 PM 54.4667 -52.4167 55° Northeast 560 644 41,000  Level Gander Center
Sat 03:22:36 PM 54.4833 -52.2667 79° East 560 644 41,000  Level Gander Center
Sat 03:23:36 PM 54.5500 -52.0167 65° Northeast 560 644 41,000  Level Gander Center
Sat 03:23:59 PM 54.5667 -51.9000 76° East 560 644 41,000  Level Gander Center
Sat 03:24:59 PM 54.6333 -51.6833 62° Northeast 550 633 41,000  Level Gander Center
Sat 03:25:59 PM 54.7000 -51.4333 65° Northeast 550 633 41,000  Level Gander Center
Sat 03:26:36 PM 54.7167 -51.2500 81° East 550 633 41,000  Level Gander Center
Sat 03:27:36 PM 54.7667 -51.0000 71° East 550 633 41,000  Level Gander Center
Sat 03:28:36 PM 54.8167 -50.7500 71° East 550 633 41,000  Level Gander Center
Sat 03:28:59 PM 54.8500 -50.6667 55° Northeast 550 633 41,000  Level Gander Center
Sat 03:29:59 PM 54.9000 -50.4167 71° East 550 633 41,000  Level Gander Center
Sat 03:30:59 PM 54.9500 -50.1667 71° East 550 633 41,000  Level Gander Center
Sat 03:31:59 PM 54.9833 -49.9500 75° East 550 633 41,000  Level Gander Center
Sat 03:32:00 PM 55.0000 -50.0000 76° East 544 626 41,000  Level ETMS Enhanced Traffic Management System
Sat 03:39:00 PM 55.2776 -47.9399 78° East 544 626 41,000  Level FlightAware Transoceanic
Sat 03:40:00 PM 55.3099 -47.6805 78° East 544 626 41,000  Level FlightAware Transoceanic
Sat 03:41:00 PM 55.3416 -47.4206 78° East 544 626 41,000  Level FlightAware Transoceanic
Sat 03:42:00 PM 55.3727 -47.1603 78° East 544 626 41,000  Level FlightAware Transoceanic
Sat 03:43:00 PM 55.4034 -46.8995 78° East 544 626 41,000  Level FlightAware Transoceanic
Sat 03:44:00 PM 55.4334 -46.6384 79° East 544 626 41,000  Level FlightAware Transoceanic
Sat 03:45:00 PM 55.4629 -46.3769 79° East 544 626 41,000  Level FlightAware Transoceanic
Sat 03:46:00 PM 55.4918 -46.1150 79° East 544 626 41,000  Level FlightAware Transoceanic
Sat 03:47:00 PM 55.5202 -45.8527 79° East 544 626 41,000  Level FlightAware Transoceanic
Sat 03:48:00 PM 55.5480 -45.5901 80° East 544 626 41,000  Level FlightAware Transoceanic
Sat 03:49:00 PM 55.5752 -45.3270 80° East 544 626 41,000  Level FlightAware Transoceanic
Sat 03:50:00 PM 55.6019 -45.0636 80° East 544 626 41,000  Level FlightAware Transoceanic
Sat 03:51:00 PM 55.6280 -44.7999 80° East 544 626 41,000  Level FlightAware Transoceanic
Sat 03:52:00 PM 55.6535 -44.5358 80° East 544 626 41,000  Level FlightAware Transoceanic
Sat 03:53:00 PM 55.6785 -44.2714 81° East 544 626 41,000  Level FlightAware Transoceanic
Sat 03:54:00 PM 55.7029 -44.0066 81° East 544 626 41,000  Level FlightAware Transoceanic
Sat 03:55:00 PM 55.7268 -43.7415 81° East 544 626 41,000  Level FlightAware Transoceanic
Sat 03:56:00 PM 55.7500 -43.4761 81° East 544 626 41,000  Level FlightAware Transoceanic
Sat 03:57:00 PM 55.7727 -43.2104 81° East 544 626 41,000  Level FlightAware Transoceanic
Sat 03:58:00 PM 55.7948 -42.9444 82° East 544 626 41,000  Level FlightAware Transoceanic
Sat 03:59:00 PM 55.8164 -42.6781 82° East 544 626 41,000  Level FlightAware Transoceanic
Sat 04:00:00 PM 55.8374 -42.4114 82° East 544 626 41,000  Level FlightAware Transoceanic
Sat 04:01:00 PM 55.8577 -42.1445 82° East 544 626 41,000  Level FlightAware Transoceanic
Sat 04:02:00 PM 55.8776 -41.8773 83° East 544 626 41,000  Level FlightAware Transoceanic
Sat 04:03:00 PM 55.8968 -41.6099 83° East 544 626 41,000  Level FlightAware Transoceanic
Sat 04:04:00 PM 55.9155 -41.3422 83° East 544 626 41,000  Level FlightAware Transoceanic
Sat 04:05:00 PM 55.9335 -41.0742 83° East 544 626 41,000  Level FlightAware Transoceanic
Sat 04:06:00 PM 55.9510 -40.8060 83° East 544 626 41,000  Level FlightAware Transoceanic
Sat 04:07:00 PM 55.9679 -40.5376 84° East 544 626 41,000  Level FlightAware Transoceanic
Sat 04:08:00 PM 55.9843 -40.2689 84° East 544 626 41,000  Level FlightAware Transoceanic
Sat 04:09:00 PM 55.9990 -40.0172 84° East  Level FlightAware Approximate
Sat 04:10:00 PM 56.0132 -39.7654 84° East  Level FlightAware Approximate
Sat 04:10:47 PM 56.0000 -40.0000 86° East 543 625 41,000  Level ETMS Enhanced Traffic Management System
Sat 04:11:00 PM 56.0086 -39.7821 86° East  Level FlightAware Approximate
Sat 04:12:00 PM 56.0182 -39.5295 86° East  Level FlightAware Approximate
Sat 04:13:00 PM 56.0272 -39.2768 86° East  Level FlightAware Approximate
Sat 04:14:00 PM 56.0357 -39.0239 86° East  Level FlightAware Approximate
Sat 04:15:00 PM 56.0437 -38.7710 87° East  Level FlightAware Approximate
Sat 04:16:00 PM 56.0686 -37.8412 88° East 543 625 41,000  Level FlightAware Transoceanic
Sat 04:17:00 PM 56.0745 -37.5709 88° East 543 625 41,000  Level FlightAware Transoceanic
Sat 04:18:00 PM 56.0798 -37.3005 88° East 543 625 41,000  Level FlightAware Transoceanic
Sat 04:19:00 PM 56.0845 -37.0300 88° East 543 625 41,000  Level FlightAware Transoceanic
Sat 04:20:00 PM 56.0887 -36.7594 89° East 543 625 41,000  Level FlightAware Transoceanic
Sat 04:21:00 PM 56.0922 -36.4889 89° East 543 625 41,000  Level FlightAware Transoceanic
Sat 04:22:00 PM 56.0952 -36.2182 89° East 543 625 41,000  Level FlightAware Transoceanic
Sat 04:23:00 PM 56.0976 -35.9475 89° East 543 625 41,000  Level FlightAware Transoceanic
Sat 04:24:00 PM 56.0993 -35.6768 89° East 543 625 41,000  Level FlightAware Transoceanic
Sat 04:25:00 PM 56.1005 -35.4061 90° East 543 625 41,000  Level FlightAware Transoceanic
Sat 04:26:00 PM 56.1011 -35.1354 90° East 543 625 41,000  Level FlightAware Transoceanic
Sat 04:27:00 PM 56.1011 -34.8646 90° East 543 625 41,000  Level FlightAware Transoceanic
Sat 04:28:00 PM 56.1005 -34.5939 90° East 543 625 41,000  Level FlightAware Transoceanic
Sat 04:29:00 PM 56.0993 -34.3232 91° East 543 625 41,000  Level FlightAware Transoceanic
Sat 04:30:00 PM 56.0976 -34.0525 91° East 543 625 41,000  Level FlightAware Transoceanic
Sat 04:31:00 PM 56.0952 -33.7818 91° East 543 625 41,000  Level FlightAware Transoceanic
Sat 04:32:00 PM 56.0922 -33.5111 91° East 543 625 41,000  Level FlightAware Transoceanic
Sat 04:33:00 PM 56.0887 -33.2406 91° East 543 625 41,000  Level FlightAware Transoceanic
Sat 04:34:00 PM 56.0845 -32.9700 92° East 543 625 41,000  Level FlightAware Transoceanic
Sat 04:35:00 PM 56.0798 -32.6995 92° East 543 625 41,000  Level FlightAware Transoceanic
Sat 04:36:00 PM 56.0745 -32.4291 92° East 543 625 41,000  Level FlightAware Transoceanic
Sat 04:37:00 PM 56.0686 -32.1588 92° East 543 625 41,000  Level FlightAware Transoceanic
Sat 04:38:00 PM 56.0621 -31.8886 93° East 543 625 41,000  Level FlightAware Transoceanic
Sat 04:39:00 PM 56.0550 -31.6184 93° East 543 625 41,000  Level FlightAware Transoceanic
Sat 04:40:00 PM 56.0473 -31.3484 93° East 543 625 41,000  Level FlightAware Transoceanic
Sat 04:41:00 PM 56.0390 -31.0784 93° East 543 625 41,000  Level FlightAware Transoceanic
Sat 04:42:00 PM 56.0301 -30.8086 93° East 543 625 41,000  Level FlightAware Transoceanic
Sat 04:43:00 PM 56.0207 -30.5389 94° East 543 625 41,000  Level FlightAware Transoceanic
Sat 04:44:00 PM 56.0106 -30.2694 94° East 543 625 41,000  Level FlightAware Transoceanic
Sat 04:45:00 PM 56.0007 -30.0169 94° East  Level FlightAware Approximate
Sat 04:46:00 PM 55.9903 -29.7645 94° East  Level FlightAware Approximate
Sat 04:47:00 PM 55.9679 -29.7885 105° East  Level FlightAware Approximate
Sat 04:47:00 PM 56.0000 -30.0000 105° East 532 612 41,000  Level ETMS Enhanced Traffic Management System
Sat 04:48:00 PM 55.9305 -29.5448 105° East  Level FlightAware Approximate
Sat 04:49:00 PM 55.8925 -29.3015 105° East  Level FlightAware Approximate
Sat 04:50:00 PM 55.8541 -29.0587 106° East  Level FlightAware Approximate
Sat 04:51:00 PM 55.8152 -28.8164 106° East  Level FlightAware Approximate
Sat 04:52:00 PM 55.7758 -28.5746 106° East  Level FlightAware Approximate
Sat 04:53:00 PM 55.6753 -27.9723 107° East 532 612 41,000  Level FlightAware Transoceanic
Sat 04:54:00 PM 55.6324 -27.7213 107° East 532 612 41,000  Level FlightAware Transoceanic
Sat 04:55:00 PM 55.5889 -27.4708 107° East 532 612 41,000  Level FlightAware Transoceanic
Sat 04:56:00 PM 55.5450 -27.2208 107° East 532 612 41,000  Level FlightAware Transoceanic
Sat 04:57:00 PM 55.5005 -26.9715 108° East 532 612 41,000  Level FlightAware Transoceanic
Sat 04:58:00 PM 55.4556 -26.7227 108° East 532 612 41,000  Level FlightAware Transoceanic
Sat 04:59:00 PM 55.4101 -26.4744 108° East 532 612 41,000  Level FlightAware Transoceanic
Sat 05:00:00 PM 55.3642 -26.2268 108° East 532 612 41,000  Level FlightAware Transoceanic
Sat 05:01:00 PM 55.3177 -25.9797 108° East 532 612 41,000  Level FlightAware Transoceanic
Sat 05:02:00 PM 55.2707 -25.7332 109° East 532 612 41,000  Level FlightAware Transoceanic
Sat 05:03:00 PM 55.2233 -25.4872 109° East 532 612 41,000  Level FlightAware Transoceanic
Sat 05:04:00 PM 55.1753 -25.2419 109° East 532 612 41,000  Level FlightAware Transoceanic
Sat 05:05:00 PM 55.1269 -24.9972 109° East 532 612 41,000  Level FlightAware Transoceanic
Sat 05:06:00 PM 55.0780 -24.7530 109° East 532 612 41,000  Level FlightAware Transoceanic
Sat 05:07:00 PM 55.0286 -24.5095 110° East 532 612 41,000  Level FlightAware Transoceanic
Sat 05:08:00 PM 54.9787 -24.2666 110° East 532 612 41,000  Level FlightAware Transoceanic
Sat 05:09:00 PM 54.9283 -24.0242 110° East 532 612 41,000  Level FlightAware Transoceanic
Sat 05:10:00 PM 54.8774 -23.7825 110° East 532 612 41,000  Level FlightAware Transoceanic
Sat 05:11:00 PM 54.8261 -23.5414 110° East 532 612 41,000  Level FlightAware Transoceanic
Sat 05:12:00 PM 54.7743 -23.3009 111° Southeast 532 612 41,000  Level FlightAware Transoceanic
Sat 05:13:00 PM 54.7220 -23.0610 111° Southeast 532 612 41,000  Level FlightAware Transoceanic
Sat 05:14:00 PM 54.6692 -22.8218 111° Southeast 532 612 41,000  Level FlightAware Transoceanic
Sat 05:15:00 PM 54.6160 -22.5831 111° Southeast 532 612 41,000  Level FlightAware Transoceanic
Sat 05:16:00 PM 54.5623 -22.3451 111° Southeast 532 612 41,000  Level FlightAware Transoceanic
Sat 05:17:00 PM 54.5081 -22.1077 112° Southeast 532 612 41,000  Level FlightAware Transoceanic
Sat 05:18:00 PM 54.4535 -21.8710 112° Southeast 532 612 41,000  Level FlightAware Transoceanic
Sat 05:19:00 PM 54.3984 -21.6349 112° Southeast 532 612 41,000  Level FlightAware Transoceanic
Sat 05:20:00 PM 54.3428 -21.3994 112° Southeast 532 612 41,000  Level FlightAware Transoceanic
Sat 05:21:00 PM 54.2868 -21.1646 112° Southeast 532 612 41,000  Level FlightAware Transoceanic
Sat 05:22:00 PM 54.2304 -20.9304 113° Southeast 532 612 41,000  Level FlightAware Transoceanic
Sat 05:23:00 PM 54.1735 -20.6968 113° Southeast 532 612 41,000  Level FlightAware Transoceanic
Sat 05:24:00 PM 54.1161 -20.4639 113° Southeast 532 612 41,000  Level FlightAware Transoceanic
Sat 05:25:00 PM 54.0583 -20.2316 113° Southeast 532 612 41,000 67 Level FlightAware Transoceanic
Sat 05:26:00 PM 54.0026 -20.0101 113° Southeast  Level FlightAware Approximate
Sat 05:27:00 PM 53.9464 -19.7893 113° Southeast  Level FlightAware Approximate
Sat 05:28:00 PM 53.9423 -19.8046 117° Southeast  Level FlightAware Approximate
Sat 05:29:00 PM 53.8784 -19.5902 117° Southeast  Level FlightAware Approximate
Sat 05:30:00 PM 53.8142 -19.3765 117° Southeast  Level FlightAware Approximate
Sat 05:31:00 PM 53.7496 -19.1634 117° Southeast  Level FlightAware Approximate
Sat 05:32:00 PM 53.6846 -18.9509 117° Southeast  Level FlightAware Approximate
Sat 05:33:00 PM 53.6192 -18.7391 117° Southeast  Level FlightAware Approximate
Sat 05:34:00 PM 53.5535 -18.5280 118° Southeast  Level FlightAware Approximate
Sat 05:35:00 PM 53.4874 -18.3175 118° Southeast  Level FlightAware Approximate
Sat 05:36:00 PM 53.4209 -18.1077 118° Southeast  Level FlightAware Approximate
Sat 05:37:00 PM 53.3540 -17.8986 118° Southeast  Level FlightAware Approximate
Sat 05:38:00 PM 53.2868 -17.6901 118° Southeast  Level FlightAware Approximate
Sat 05:39:00 PM 53.2192 -17.4822 118° Southeast  Level FlightAware Approximate
Sat 05:40:00 PM 53.1513 -17.2750 119° Southeast  Level FlightAware Approximate
Sat 05:41:00 PM 53.0830 -17.0685 119° Southeast  Level FlightAware Approximate
Sat 05:42:00 PM 53.0144 -16.8626 119° Southeast  Level FlightAware Approximate
Sat 05:43:00 PM 52.9454 -16.6574 119° Southeast  Level FlightAware Approximate
Sat 05:44:00 PM 52.8760 -16.4528 119° Southeast  Level FlightAware Approximate
Sat 05:45:00 PM 52.8063 -16.2489 119° Southeast  Level FlightAware Approximate
Sat 05:46:00 PM 52.7362 -16.0457 120° Southeast  Level FlightAware Approximate
Sat 05:47:00 PM 52.6658 -15.8431 120° Southeast  Level FlightAware Approximate
Sat 05:48:00 PM 52.5951 -15.6411 120° Southeast  Level FlightAware Approximate
Sat 05:49:00 PM 52.5240 -15.4398 120° Southeast  Level FlightAware Approximate
Sat 05:50:00 PM 52.4525 -15.2392 120° Southeast  Level FlightAware Approximate
Sat 05:51:00 PM 52.3808 -15.0392 120° Southeast  Level FlightAware Approximate
Sat 05:52:00 PM 52.3097 -14.8389 120° Southeast  Level FlightAware Approximate
Sat 05:53:00 PM 52.2384 -14.6390 120° Southeast  Level FlightAware Approximate
Sat 05:54:00 PM 52.1669 -14.4398 120° Southeast  Level FlightAware Approximate
Sat 05:55:00 PM 52.0950 -14.2412 120° Southeast  Level FlightAware Approximate
Sat 05:56:00 PM 52.0227 -14.0433 121° Southeast  Level FlightAware Approximate
Sat 05:57:00 PM 51.9502 -13.8460 121° Southeast  Level FlightAware Approximate
Sat 05:58:00 PM 51.8773 -13.6493 121° Southeast  Level FlightAware Approximate
Sat 05:59:00 PM 51.8041 -13.4533 121° Southeast  Level FlightAware Approximate
Sat 06:00:00 PM 51.7305 -13.2579 121° Southeast  Level FlightAware Approximate
Sat 06:01:00 PM 51.6566 -13.0632 121° Southeast  Level FlightAware Approximate
Sat 06:02:00 PM 51.5824 -12.8691 122° Southeast  Level FlightAware Approximate
Sat 06:03:00 PM 51.5079 -12.6756 122° Southeast  Level FlightAware Approximate
Sat 06:04:00 PM 51.4331 -12.4827 122° Southeast  Level FlightAware Approximate
Sat 06:05:00 PM 51.3570 -12.2915 122° Southeast  Level FlightAware Approximate
Sat 06:06:00 PM 51.2807 -12.1008 123° Southeast  Level FlightAware Approximate
Sat 06:07:00 PM 51.2040 -11.9108 123° Southeast  Level FlightAware Approximate
Sat 06:08:00 PM 51.1270 -11.7214 123° Southeast  Level FlightAware Approximate
Sat 06:09:00 PM 51.0497 -11.5327 123° Southeast  Level FlightAware Approximate
Sat 06:10:00 PM 50.9716 -11.3451 123° Southeast  Level FlightAware Approximate
Sat 06:11:00 PM 50.8932 -11.1581 124° Southeast  Level FlightAware Approximate
Sat 06:12:00 PM 50.8145 -10.9718 124° Southeast  Level FlightAware Approximate
Sat 06:13:00 PM 50.7355 -10.7861 124° Southeast  Level FlightAware Approximate
Sat 06:14:00 PM 50.6562 -10.6010 124° Southeast  Level FlightAware Approximate
Sat 06:15:00 PM 50.5767 -10.4166 124° Southeast  Level FlightAware Approximate
Sat 06:16:00 PM 50.4973 -10.2323 124° Southeast  Level FlightAware Approximate
Sat 06:17:00 PM 50.4181 -10.0480 124° Southeast  Level FlightAware Approximate
Sat 06:18:00 PM 50.3386 -9.8644 124° Southeast  Level FlightAware Approximate
Sat 06:19:00 PM 50.2589 -9.6813 124° Southeast  Level FlightAware Approximate
Sat 06:20:00 PM 50.1789 -9.4989 124° Southeast  Level FlightAware Approximate
Sat 06:21:00 PM 50.0986 -9.3171 125° Southeast  Level FlightAware Approximate
Sat 06:22:00 PM 50.0180 -9.1359 125° Southeast  Level FlightAware Approximate
Sat 06:23:00 PM 49.9371 -8.9553 125° Southeast  Level FlightAware Approximate
Sat 06:23:21 PM 49.9737 -9.0043 125° Southeast 484 557 45,000  Level FlightAware UK
Sat 06:23:39 PM 49.9497 -8.9525 126° Southeast 486 559 45,000  Level FlightAware UK
Sat 06:23:57 PM 49.9257 -8.9008 126° Southeast 484 557 45,000  Level FlightAware UK
Sat 06:24:15 PM 49.9016 -8.8493 126° Southeast 484 557 45,000  Level FlightAware UK
Sat 06:24:33 PM 49.8778 -8.7978 126° Southeast 484 557 45,000  Level FlightAware UK
Sat 06:24:51 PM 49.8537 -8.7464 126° Southeast 484 557 45,000  Level FlightAware UK
Sat 06:25:09 PM 49.8296 -8.6951 126° Southeast 484 557 45,000  Level FlightAware UK
Sat 06:25:27 PM 49.8055 -8.6439 126° Southeast 482 555 45,000  Level FlightAware UK
Sat 06:25:45 PM 49.7814 -8.5926 126° Southeast 484 557 45,000  Level FlightAware UK
Sat 06:26:03 PM 49.7572 -8.5413 126° Southeast 486 559 45,000  Level FlightAware UK
Sat 06:26:21 PM 49.7330 -8.4900 126° Southeast 484 557 45,000  Level FlightAware UK
Sat 06:26:39 PM 49.7088 -8.4387 126° Southeast 484 557 45,000  Level FlightAware UK
Sat 06:26:57 PM 49.6847 -8.3874 126° Southeast 486 559 45,000  Level FlightAware UK
Sat 06:27:15 PM 49.6604 -8.3363 126° Southeast 486 559 45,000  Level FlightAware UK
Sat 06:27:33 PM 49.6361 -8.2852 126° Southeast 486 559 45,000  Level FlightAware UK
Sat 06:27:51 PM 49.6117 -8.2343 126° Southeast 484 557 45,000  Level FlightAware UK
Sat 06:28:09 PM 49.5874 -8.1835 126° Southeast 482 555 45,000  Level FlightAware UK
Sat 06:28:27 PM 49.5631 -8.1328 126° Southeast 482 555 45,000  Level FlightAware UK
Sat 06:28:45 PM 49.5388 -8.0821 126° Southeast 482 555 45,000  Level FlightAware UK
Sat 06:29:03 PM 49.5145 -8.0306 126° Southeast 480 552 45,000  Level FlightAware UK
Sat 06:29:21 PM 49.4946 -7.9757 119° Southeast 480 552 45,000  Level FlightAware UK
Sat 06:29:39 PM 49.4760 -7.9196 117° Southeast 482 555 45,000  Level FlightAware UK
Sat 06:29:57 PM 49.4600 -7.8614 113° Southeast 482 555 45,000  Level FlightAware UK
Sat 06:30:15 PM 49.4434 -7.8039 114° Southeast 482 555 45,000  Level FlightAware UK
Sat 06:30:33 PM 49.4252 -7.7473 116° Southeast 482 555 45,000  Level FlightAware UK
Sat 06:30:51 PM 49.4067 -7.6907 117° Southeast 484 557 45,000  Level FlightAware UK
Sat 06:31:09 PM 49.3883 -7.6341 117° Southeast 486 559 45,000  Level FlightAware UK
Sat 06:31:27 PM 49.3700 -7.5773 116° Southeast 486 559 45,000  Level FlightAware UK
Sat 06:31:45 PM 49.3518 -7.5205 116° Southeast 484 557 45,000  Level FlightAware UK
Sat 06:32:03 PM 49.3337 -7.4635 116° Southeast 486 559 45,000  Level FlightAware UK
Sat 06:32:21 PM 49.3155 -7.4066 116° Southeast 486 559 45,000  Level FlightAware UK
Sat 06:32:39 PM 49.2972 -7.3498 116° Southeast 488 562 45,000  Level FlightAware UK
Sat 06:32:57 PM 49.2788 -7.2930 116° Southeast 488 562 45,000  Level FlightAware UK
Sat 06:33:15 PM 49.2604 -7.2362 116° Southeast 486 559 45,000  Level FlightAware UK
Sat 06:33:33 PM 49.2421 -7.1795 116° Southeast 486 559 45,000  Level FlightAware UK
Sat 06:33:51 PM 49.2236 -7.1228 116° Southeast 486 559 45,000  Level FlightAware UK
Sat 06:34:09 PM 49.2052 -7.0662 116° Southeast 486 559 45,000  Level FlightAware UK
Sat 06:34:27 PM 49.1869 -7.0097 116° Southeast 484 557 45,000  Level FlightAware UK
Sat 06:34:45 PM 49.1685 -6.9532 116° Southeast 484 557 45,000  Level FlightAware UK
Sat 06:35:04 PM 49.1499 -6.8964 117° Southeast 484 557 45,000  Level FlightAware UK
Sat 06:35:22 PM 49.1314 -6.8401 117° Southeast 484 557 45,000  Level FlightAware UK
Sat 06:35:40 PM 49.1128 -6.7839 117° Southeast 484 557 45,000  Level FlightAware UK
Sat 06:35:58 PM 49.0943 -6.7278 117° Southeast 484 557 45,000  Level FlightAware UK
Sat 06:36:16 PM 49.0757 -6.6717 117° Southeast 484 557 45,000  Level FlightAware UK
Sat 06:36:34 PM 49.0571 -6.6154 117° Southeast 486 559 45,000  Level FlightAware UK
Sat 06:36:52 PM 49.0385 -6.5591 117° Southeast 486 559 45,000  Level FlightAware UK
Sat 06:37:10 PM 49.0199 -6.5028 117° Southeast 486 559 45,000  Level FlightAware UK
Sat 06:37:28 PM 49.0011 -6.4466 117° Southeast 486 559 45,000  Level FlightAware UK
Sat 06:37:46 PM 48.9822 -6.3905 117° Southeast 484 557 45,000  Level FlightAware UK
Sat 06:38:04 PM 48.9634 -6.3346 117° Southeast 486 559 45,000  Level FlightAware UK
Sat 06:38:22 PM 48.9446 -6.2788 117° Southeast 484 557 45,000  Level FlightAware UK
Sat 06:38:40 PM 48.9258 -6.2231 117° Southeast 484 557 45,000  Level FlightAware UK
Sat 06:38:58 PM 48.9070 -6.1674 117° Southeast 484 557 45,000  Level FlightAware UK
Sat 06:39:16 PM 48.8882 -6.1118 117° Southeast 484 557 45,000  Level FlightAware UK
Sat 06:39:34 PM 48.8693 -6.0556 117° Southeast 484 557 45,000  Level FlightAware UK
Sat 06:39:52 PM 48.8505 -6.0001 117° Southeast 484 557 45,000  Level FlightAware UK
Sat 06:40:10 PM 48.8318 -5.9453 117° Southeast 484 557 45,000  Level FlightAware UK
Sat 06:40:28 PM 48.8129 -5.8898 117° Southeast 486 559 45,000  Level FlightAware UK
Sat 06:40:46 PM 48.7939 -5.8344 117° Southeast 486 559 45,000  Level FlightAware UK
Sat 06:41:04 PM 48.7747 -5.7784 117° Southeast 488 562 45,000  Level FlightAware UK
Sat 06:41:22 PM 48.7557 -5.7231 118° Southeast 486 559 45,000  Level FlightAware UK
Sat 06:41:40 PM 48.7366 -5.6677 118° Southeast 484 557 45,000  Level FlightAware UK
Sat 06:41:58 PM 48.7177 -5.6124 117° Southeast 484 557 45,000  Level FlightAware UK
Sat 06:42:16 PM 48.6988 -5.5573 118° Southeast 484 557 45,000  Level FlightAware UK
Sat 06:42:34 PM 48.6794 -5.5017 118° Southeast 486 559 45,000  Level FlightAware UK
Sat 06:42:52 PM 48.6603 -5.4467 118° Southeast 486 559 45,000  Level FlightAware UK
Sat 06:43:10 PM 48.6412 -5.3918 118° Southeast 482 555 45,000  Level FlightAware UK
Sat 06:43:28 PM 48.6222 -5.3369 118° Southeast 484 557 45,000  Level FlightAware UK
Sat 06:43:46 PM 48.6030 -5.2821 118° Southeast 484 557 45,000  Level FlightAware UK
Sat 06:44:04 PM 48.5841 -5.2279 118° Southeast 484 557 45,000  Level FlightAware UK
Sat 06:44:22 PM 48.5650 -5.1729 118° Southeast 484 557 45,000  Level FlightAware UK
Sat 06:44:40 PM 48.5458 -5.1180 118° Southeast 486 559 45,000  Level FlightAware UK
Sat 06:44:58 PM 48.5265 -5.0631 118° Southeast 486 559 45,000  Level FlightAware UK
Sat 06:45:16 PM 48.5070 -5.0082 118° Southeast 486 559 45,000  Level FlightAware UK
Sat 06:45:34 PM 48.4875 -4.9532 118° Southeast 486 559 45,000  Level FlightAware UK
Sat 06:45:52 PM 48.4680 -4.8984 118° Southeast 488 562 45,000  Level FlightAware UK
Sat 06:46:10 PM 48.4483 -4.8429 118° Southeast 486 559 45,000  Level FlightAware UK
Sat 06:46:28 PM 48.4288 -4.7882 118° Southeast 486 559 45,000  Level FlightAware UK
Sat 06:46:46 PM 48.4094 -4.7337 118° Southeast 486 559 45,000  Level FlightAware UK
Sat 06:47:04 PM 48.3900 -4.6792 118° Southeast 484 557 45,000  Level FlightAware UK
Sat 06:47:22 PM 48.3705 -4.6249 118° Southeast 486 559 45,000  Level FlightAware UK
Sat 06:47:40 PM 48.3510 -4.5707 118° Southeast 488 562 45,000  Level FlightAware UK
Sat 06:47:58 PM 48.3315 -4.5168 118° Southeast 488 562 45,000  Level FlightAware UK
Sat 06:48:16 PM 48.3121 -4.4629 118° Southeast 488 562 45,000  Level FlightAware UK
Sat 06:48:34 PM 48.2926 -4.4091 118° Southeast 486 559 45,000  Level FlightAware UK
Sat 06:48:52 PM 48.2732 -4.3555 119° Southeast 484 557 45,000  Level FlightAware UK
Sat 06:49:10 PM 48.2537 -4.3019 119° Southeast 484 557 45,000  Level FlightAware UK
Sat 06:49:28 PM 48.2344 -4.2484 118° Southeast 484 557 45,000  Level FlightAware UK
Sat 06:51:00 PM 48.1464 -3.9741 116° Southeast  Level FlightAware Approximate
Sat 06:58:00 PM 47.7077 -2.6486 116° Southeast  Level FlightAware Approximate
Sat 06:59:00 PM 47.6438 -2.4610 117° Southeast  Level FlightAware Approximate
Sat 07:00:00 PM 47.5795 -2.2740 117° Southeast  Level FlightAware Approximate
Sat 07:01:00 PM 47.5150 -2.0873 117° Southeast  Level FlightAware Approximate
Sat 07:02:00 PM 47.4502 -1.9012 117° Southeast  Level FlightAware Approximate
Sat 07:03:00 PM 47.3851 -1.7155 117° Southeast  Level FlightAware Approximate
Sat 07:04:00 PM 47.3197 -1.5302 117° Southeast  Level FlightAware Approximate
Sat 07:05:00 PM 47.2539 -1.3455 118° Southeast  Level FlightAware Approximate
Sat 07:06:00 PM 47.1879 -1.1611 118° Southeast  Level FlightAware Approximate
Sat 07:07:00 PM 47.1216 -0.9773 118° Southeast  Level FlightAware Approximate
Sat 07:08:00 PM 47.0550 -0.7939 118° Southeast  Level FlightAware Approximate
Sat 07:09:00 PM 46.9881 -0.6109 118° Southeast  Level FlightAware Approximate
Sat 07:10:00 PM 46.9209 -0.4284 118° Southeast  Level FlightAware Approximate
Sat 07:11:00 PM 46.8534 -0.2464 118° Southeast  Level FlightAware Approximate
Sat 07:12:00 PM 46.7857 -0.0649 119° Southeast  Level FlightAware Approximate
Sat 07:13:00 PM 46.7176 0.1163 119° Southeast  Level FlightAware Approximate
Sat 07:14:00 PM 46.6493 0.2969 119° Southeast  Level FlightAware Approximate
Sat 07:15:00 PM 46.5807 0.4771 119° Southeast  Level FlightAware Approximate
Sat 07:16:00 PM 46.5117 0.6568 119° Southeast  Level FlightAware Approximate
Sat 07:17:00 PM 46.4426 0.8361 119° Southeast  Level FlightAware Approximate
Sat 07:18:00 PM 46.3731 1.0150 119° Southeast  Level FlightAware Approximate
Sat 07:19:00 PM 46.3034 1.1933 119° Southeast  Level FlightAware Approximate
Sat 07:20:00 PM 46.2333 1.3713 120° Southeast  Level FlightAware Approximate
Sat 07:21:00 PM 46.1631 1.5487 120° Southeast  Level FlightAware Approximate
Sat 07:22:00 PM 46.0925 1.7257 120° Southeast  Level FlightAware Approximate
Sat 07:23:00 PM 46.0216 1.9023 120° Southeast  Level FlightAware Approximate
Sat 07:24:00 PM 45.9505 2.0784 120° Southeast  Level FlightAware Approximate
Sat 07:25:00 PM 45.8792 2.2540 120° Southeast  Level FlightAware Approximate
Sat 07:26:00 PM 45.8075 2.4292 120° Southeast  Level FlightAware Approximate
Sat 07:27:00 PM 45.7356 2.6040 120° Southeast  Level FlightAware Approximate
Sat 07:28:00 PM 45.6634 2.7783 121° Southeast  Level FlightAware Approximate
Sat 07:29:00 PM 45.5910 2.9521 121° Southeast  Level FlightAware Approximate
Sat 07:30:00 PM 45.5182 3.1255 121° Southeast  Level FlightAware Approximate
Sat 07:31:00 PM 45.4453 3.2985 121° Southeast  Level FlightAware Approximate
Sat 07:32:00 PM 45.3721 3.4710 121° Southeast  Level FlightAware Approximate
Sat 07:33:00 PM 45.2986 3.6430 121° Southeast  Level FlightAware Approximate
Sat 07:34:00 PM 45.2248 3.8147 121° Southeast  Level FlightAware Approximate
Sat 07:35:00 PM 45.1508 3.9858 121° Southeast  Level FlightAware Approximate
Sat 07:36:00 PM 45.0765 4.1565 122° Southeast  Level FlightAware Approximate
Sat 07:37:00 PM 45.0020 4.3268 122° Southeast  Level FlightAware Approximate
Sat 07:38:00 PM 44.9273 4.4967 122° Southeast  Level FlightAware Approximate
Sat 07:39:00 PM 44.8522 4.6660 122° Southeast  Level FlightAware Approximate
Sat 07:40:00 PM 44.7770 4.8350 122° Southeast  Level FlightAware Approximate
Sat 07:41:00 PM 44.7015 5.0035 122° Southeast  Level FlightAware Approximate
Sat 07:42:00 PM 44.6257 5.1716 122° Southeast  Level FlightAware Approximate
Sat 07:43:00 PM 44.5497 5.3392 122° Southeast  Level FlightAware Approximate
Sat 07:44:00 PM 44.4734 5.5064 123° Southeast  Level FlightAware Approximate
Sat 07:45:00 PM 44.3969 5.6732 123° Southeast  Level FlightAware Approximate
Sat 07:46:00 PM 44.3202 5.8395 123° Southeast  Level FlightAware Approximate
Sat 07:47:00 PM 44.2432 6.0054 123° Southeast  Level FlightAware Approximate
Sat 07:48:00 PM 44.1660 6.1708 123° Southeast  Level FlightAware Approximate
Sat 07:49:00 PM 44.0886 6.3358 123° Southeast  Level FlightAware Approximate
Sat 07:50:00 PM 44.0109 6.5004 123° Southeast  Level FlightAware Approximate
Sat 07:51:00 PM 43.9329 6.6646 123° Southeast  Level FlightAware Approximate
Sat 07:52:00 PM 43.8548 6.8283 123° Southeast  Level FlightAware Approximate
Sat 07:53:00 PM 43.7764 6.9916 124° Southeast  Level FlightAware Approximate
Sat 07:54:00 PM 43.6977 7.1544 124° Southeast  Level FlightAware Approximate
Sat 07:55:00 PM 43.6189 7.3169 124° Southeast  Level FlightAware Approximate
Sat 07:56:00 PM 43.5398 7.4789 124° Southeast  Level FlightAware Approximate
Sat 07:57:00 PM 43.4605 7.6405 124° Southeast  Level FlightAware Approximate
Sat 07:58:00 PM 43.3809 7.8016 124° Southeast  Level FlightAware Approximate
Sat 07:59:00 PM 43.3012 7.9624 124° Southeast  Level FlightAware Approximate
Sat 08:00:00 PM 43.2212 8.1227 124° Southeast  Level FlightAware Approximate
Sat 08:01:00 PM 43.1410 8.2826 124° Southeast  Level FlightAware Approximate
Sat 08:02:00 PM 43.0605 8.4421 125° Southeast  Level FlightAware Approximate
Sat 08:03:00 PM 42.9799 8.6011 125° Southeast  Level FlightAware Approximate
Sat 08:04:00 PM 42.8990 8.7598 125° Southeast  Level FlightAware Approximate
Sat 08:05:00 PM 42.8179 8.9180 125° Southeast  Level FlightAware Approximate
Sat 08:06:00 PM 42.7366 9.0758 125° Southeast  Level FlightAware Approximate
Sat 08:07:00 PM 42.6550 9.2332 125° Southeast  Level FlightAware Approximate
Sat 08:08:00 PM 42.5733 9.3902 125° Southeast  Level FlightAware Approximate
Sat 08:09:00 PM 42.4942 9.5532 122° Southeast  Level FlightAware Approximate
Sat 08:10:00 PM 42.4199 9.7164 122° Southeast  Level FlightAware Approximate
Sat 08:11:00 PM 42.3454 9.8793 122° Southeast  Level FlightAware Approximate
Sat 08:12:00 PM 42.2707 10.0419 122° Southeast  Level FlightAware Approximate
Sat 08:13:00 PM 42.1957 10.2040 122° Southeast  Level FlightAware Approximate
Sat 08:14:00 PM 42.1205 10.3657 122° Southeast  Level FlightAware Approximate
Sat 08:15:00 PM 42.0453 10.5273 121° Southeast  Level FlightAware Approximate
Sat 08:16:00 PM 41.9726 10.6906 121° Southeast  Level FlightAware Approximate
Sat 08:17:00 PM 41.8996 10.8537 121° Southeast  Level FlightAware Approximate
Sat 08:18:00 PM 41.8264 11.0163 121° Southeast  Level FlightAware Approximate
Sat 08:19:00 PM 41.7529 11.1785 121° Southeast  Level FlightAware Approximate
Sat 08:20:00 PM 41.6793 11.3404 121° Southeast  Level FlightAware Approximate
Sat 08:21:00 PM 41.6054 11.5020 121° Southeast  Level FlightAware Approximate
Sat 08:22:00 PM 41.5298 11.6619 123° Southeast  Level FlightAware Approximate
Sat 08:23:00 PM 41.4534 11.8210 123° Southeast  Level FlightAware Approximate
Sat 08:24:00 PM 41.3769 11.9796 123° Southeast  Level FlightAware Approximate
Sat 08:25:00 PM 41.3000 12.1380 123° Southeast  Level FlightAware Approximate
Sat 08:26:00 PM 41.2230 12.2959 123° Southeast  Level FlightAware Approximate
Sat 08:27:00 PM 41.1457 12.4535 123° Southeast  Level FlightAware Approximate
Sat 08:28:00 PM 41.0683 12.6107 123° Southeast  Level FlightAware Approximate
Sat 08:29:00 PM 40.9906 12.7675 123° Southeast  Level FlightAware Approximate
Sat 08:30:00 PM 40.9127 12.9239 123° Southeast  Level FlightAware Approximate
Sat 08:31:00 PM 40.8346 13.0800 123° Southeast  Level FlightAware Approximate
Sat 08:32:00 PM 40.7563 13.2357 124° Southeast  Level FlightAware Approximate
Sat 08:33:00 PM 40.6778 13.3911 124° Southeast  Level FlightAware Approximate
Sat 08:34:00 PM 40.5990 13.5461 124° Southeast  Level FlightAware Approximate
Sat 08:35:00 PM 40.5201 13.7007 124° Southeast  Level FlightAware Approximate
Sat 08:36:00 PM 40.4410 13.8549 124° Southeast  Level FlightAware Approximate
Sat 08:37:00 PM 40.3616 14.0088 124° Southeast  Level FlightAware Approximate
Sat 08:38:00 PM 40.2821 14.1623 124° Southeast  Level FlightAware Approximate
Sat 08:39:00 PM 40.2023 14.3155 124° Southeast  Level FlightAware Approximate
Sat 08:40:00 PM 40.1224 14.4683 124° Southeast  Level FlightAware Approximate
Sat 08:41:00 PM 40.0422 14.6208 124° Southeast  Level FlightAware Approximate
Sat 08:42:00 PM 39.9619 14.7729 125° Southeast  Level FlightAware Approximate
Sat 08:43:00 PM 39.8813 14.9246 125° Southeast  Level FlightAware Approximate
Sat 08:44:00 PM 39.8006 15.0760 125° Southeast  Level FlightAware Approximate
Sat 08:45:00 PM 39.7196 15.2270 125° Southeast  Level FlightAware Approximate
Sat 08:46:00 PM 39.6385 15.3777 125° Southeast  Level FlightAware Approximate
Sat 08:47:00 PM 39.5572 15.5280 125° Southeast  Level FlightAware Approximate
Sat 08:48:00 PM 39.4756 15.6779 125° Southeast  Level FlightAware Approximate
Sat 08:49:00 PM 39.3939 15.8275 125° Southeast  Level FlightAware Approximate
Sat 08:50:00 PM 39.3120 15.9768 125° Southeast  Level FlightAware Approximate
Sat 08:51:00 PM 39.2299 16.1257 125° Southeast  Level FlightAware Approximate
Sat 08:52:00 PM 39.1476 16.2743 126° Southeast  Level FlightAware Approximate
Sat 08:53:00 PM 39.0651 16.4225 126° Southeast  Level FlightAware Approximate
Sat 08:54:00 PM 38.9825 16.5704 126° Southeast  Level FlightAware Approximate
Sat 08:55:00 PM 38.8996 16.7179 126° Southeast  Level FlightAware Approximate
Sat 08:56:00 PM 38.8166 16.8650 126° Southeast  Level FlightAware Approximate
Sat 08:57:00 PM 38.7334 17.0119 126° Southeast  Level FlightAware Approximate
Sat 08:58:00 PM 38.6500 17.1584 126° Southeast  Level FlightAware Approximate
Sat 08:59:00 PM 38.5664 17.3045 126° Southeast  Level FlightAware Approximate
Sat 09:00:00 PM 38.4826 17.4503 126° Southeast  Level FlightAware Approximate
Sat 09:01:00 PM 38.3987 17.5958 126° Southeast  Level FlightAware Approximate
Sat 09:02:00 PM 38.3145 17.7409 126° Southeast  Level FlightAware Approximate
Sat 09:03:00 PM 38.2302 17.8857 127° Southeast  Level FlightAware Approximate
Sat 09:04:00 PM 38.1457 18.0302 127° Southeast  Level FlightAware Approximate
Sat 09:05:00 PM 38.0611 18.1743 127° Southeast  Level FlightAware Approximate
Sat 09:06:00 PM 37.9763 18.3181 127° Southeast  Level FlightAware Approximate
Sat 09:07:00 PM 37.8913 18.4616 127° Southeast  Level FlightAware Approximate
Sat 09:08:00 PM 37.8061 18.6047 127° Southeast  Level FlightAware Approximate
Sat 09:09:00 PM 37.7207 18.7475 127° Southeast  Level FlightAware Approximate
Sat 09:10:00 PM 37.6352 18.8900 127° Southeast  Level FlightAware Approximate
Sat 09:11:00 PM 37.5495 19.0321 127° Southeast  Level FlightAware Approximate
Sat 09:12:00 PM 37.4636 19.1739 127° Southeast  Level FlightAware Approximate
Sat 09:13:00 PM 37.3776 19.3154 127° Southeast  Level FlightAware Approximate
Sat 09:14:00 PM 37.2914 19.4566 127° Southeast  Level FlightAware Approximate
Sat 09:15:00 PM 37.2050 19.5974 128° Southeast  Level FlightAware Approximate
Sat 09:16:00 PM 37.1185 19.7379 128° Southeast  Level FlightAware Approximate
Sat 09:17:00 PM 37.0317 19.8782 128° Southeast  Level FlightAware Approximate
Sat 09:18:00 PM 36.9449 20.0180 128° Southeast  Level FlightAware Approximate
Sat 09:19:00 PM 36.8578 20.1576 128° Southeast  Level FlightAware Approximate
Sat 09:20:00 PM 36.7706 20.2968 128° Southeast  Level FlightAware Approximate
Sat 09:21:00 PM 36.6833 20.4357 128° Southeast  Level FlightAware Approximate
Sat 09:22:00 PM 36.5958 20.5744 128° Southeast  Level FlightAware Approximate
Sat 09:23:00 PM 36.5081 20.7127 128° Southeast  Level FlightAware Approximate
Sat 09:24:00 PM 36.4202 20.8506 128° Southeast  Level FlightAware Approximate
Sat 09:25:00 PM 36.3322 20.9883 128° Southeast  Level FlightAware Approximate
Sat 09:26:00 PM 36.2441 21.1257 128° Southeast  Level FlightAware Approximate
Sat 09:27:00 PM 36.1558 21.2627 129° Southeast  Level FlightAware Approximate
Sat 09:28:00 PM 36.0673 21.3995 129° Southeast  Level FlightAware Approximate
Sat 09:29:00 PM 35.9787 21.5359 129° Southeast  Level FlightAware Approximate
Sat 09:30:00 PM 35.8899 21.6720 129° Southeast  Level FlightAware Approximate
Sat 09:31:00 PM 35.8010 21.8078 129° Southeast  Level FlightAware Approximate
Sat 09:32:00 PM 35.7119 21.9434 129° Southeast  Level FlightAware Approximate
Sat 09:33:00 PM 35.6227 22.0786 129° Southeast  Level FlightAware Approximate
Sat 09:34:00 PM 35.5333 22.2135 129° Southeast  Level FlightAware Approximate
Sat 09:35:00 PM 35.4438 22.3481 129° Southeast  Level FlightAware Approximate
Sat 09:36:00 PM 35.3541 22.4824 129° Southeast  Level FlightAware Approximate
Sat 09:37:00 PM 35.2643 22.6164 129° Southeast  Level FlightAware Approximate
Sat 09:38:00 PM 35.1743 22.7501 129° Southeast  Level FlightAware Approximate
Sat 09:39:00 PM 35.0842 22.8836 130° Southeast  Level FlightAware Approximate
Sat 09:40:00 PM 34.9939 23.0167 130° Southeast  Level FlightAware Approximate
Sat 09:41:00 PM 34.9035 23.1495 130° Southeast  Level FlightAware Approximate
Sat 09:42:00 PM 34.8129 23.2820 130° Southeast  Level FlightAware Approximate
Sat 09:43:00 PM 34.7222 23.4143 130° Southeast  Level FlightAware Approximate
Sat 09:44:00 PM 34.6314 23.5463 130° Southeast  Level FlightAware Approximate
Sat 09:45:00 PM 34.5404 23.6779 130° Southeast  Level FlightAware Approximate
Sat 09:46:00 PM 34.4493 23.8093 130° Southeast  Level FlightAware Approximate
Sat 09:47:00 PM 34.3580 23.9404 130° Southeast  Level FlightAware Approximate
Sat 09:48:00 PM 34.2666 24.0712 130° Southeast  Level FlightAware Approximate
Sat 09:49:00 PM 34.1750 24.2017 130° Southeast  Level FlightAware Approximate
Sat 09:50:00 PM 34.0834 24.3320 130° Southeast  Level FlightAware Approximate
Sat 09:51:00 PM 33.9915 24.4619 131° Southeast  Level FlightAware Approximate
Sat 09:52:00 PM 33.8995 24.5915 131° Southeast  Level FlightAware Approximate
Sat 09:53:00 PM 33.8073 24.7208 131° Southeast  Level FlightAware Approximate
Sat 09:54:00 PM 33.7149 24.8498 131° Southeast  Level FlightAware Approximate
Sat 09:55:00 PM 33.6225 24.9785 131° Southeast  Level FlightAware Approximate
Sat 09:56:00 PM 33.5299 25.1070 131° Southeast  Level FlightAware Approximate
Sat 09:57:00 PM 33.4371 25.2352 131° Southeast  Level FlightAware Approximate
Sat 09:58:00 PM 33.3442 25.3631 131° Southeast  Level FlightAware Approximate
Sat 09:59:00 PM 33.2512 25.4907 131° Southeast  Level FlightAware Approximate
Sat 10:00:00 PM 33.1581 25.6180 131° Southeast  Level FlightAware Approximate
Sat 10:01:00 PM 33.0648 25.7451 131° Southeast  Level FlightAware Approximate
Sat 10:02:00 PM 32.9715 25.8720 131° Southeast  Level FlightAware Approximate
Sat 10:03:00 PM 32.8779 25.9985 131° Southeast  Level FlightAware Approximate
Sat 10:04:00 PM 32.7843 26.1248 131° Southeast  Level FlightAware Approximate
Sat 10:05:00 PM 32.6905 26.2508 131° Southeast  Level FlightAware Approximate
Sat 10:06:00 PM 32.5966 26.3766 132° Southeast  Level FlightAware Approximate
Sat 10:07:00 PM 32.5027 26.5021 131° Southeast  Level FlightAware Approximate
Sat 10:08:00 PM 32.4089 26.6278 131° Southeast  Level FlightAware Approximate
Sat 10:09:00 PM 32.3150 26.7532 132° Southeast  Level FlightAware Approximate
Sat 10:10:00 PM 32.2211 26.8783 132° Southeast  Level FlightAware Approximate
Sat 10:11:00 PM 32.1269 27.0032 132° Southeast  Level FlightAware Approximate
Sat 10:12:00 PM 32.0327 27.1278 132° Southeast  Level FlightAware Approximate
Sat 10:13:00 PM 31.9383 27.2521 132° Southeast  Level FlightAware Approximate
Sat 10:14:00 PM 31.8438 27.3762 132° Southeast  Level FlightAware Approximate
Sat 10:15:00 PM 31.7492 27.5000 132° Southeast  Level FlightAware Approximate
Sat 10:16:00 PM 31.6545 27.6236 132° Southeast  Level FlightAware Approximate
Sat 10:17:00 PM 31.5597 27.7470 132° Southeast  Level FlightAware Approximate
Sat 10:18:00 PM 31.4647 27.8701 132° Southeast  Level FlightAware Approximate
Sat 10:19:00 PM 31.3696 27.9929 132° Southeast  Level FlightAware Approximate
Sat 10:20:00 PM 31.2744 28.1155 132° Southeast  Level FlightAware Approximate
Sat 10:21:00 PM 31.1791 28.2378 132° Southeast  Level FlightAware Approximate
Sat 10:22:00 PM 31.0837 28.3599 132° Southeast  Level FlightAware Approximate
Sat 10:23:00 PM 30.9878 28.4815 134° Southeast  Level FlightAware Approximate
Sat 10:24:00 PM 30.8899 28.6006 134° Southeast  Level FlightAware Approximate
Sat 10:25:00 PM 30.7919 28.7195 134° Southeast  Level FlightAware Approximate
Sat 10:26:00 PM 30.6938 28.8382 134° Southeast  Level FlightAware Approximate
Sat 10:27:00 PM 30.5956 28.9566 134° Southeast  Level FlightAware Approximate
Sat 10:28:00 PM 30.4972 29.0748 134° Southeast  Level FlightAware Approximate
Sat 10:29:00 PM 30.3988 29.1928 134° Southeast  Level FlightAware Approximate
Sat 10:30:00 PM 30.3002 29.3105 134° Southeast  Level FlightAware Approximate
Sat 10:31:00 PM 30.2016 29.4279 134° Southeast  Level FlightAware Approximate
Sat 10:32:00 PM 30.1028 29.5452 134° Southeast  Level FlightAware Approximate
Sat 10:33:00 PM 30.0040 29.6622 134° Southeast  Level FlightAware Approximate
Sat 10:34:00 PM 29.9050 29.7789 134° Southeast  Level FlightAware Approximate
Sat 10:35:00 PM 29.8059 29.8955 134° Southeast  Level FlightAware Approximate
Sat 10:36:00 PM 29.7068 30.0118 134° Southeast  Level FlightAware Approximate
Sat 10:37:00 PM 29.6075 30.1278 135° Southeast  Level FlightAware Approximate
Sat 10:38:00 PM 29.5081 30.2437 135° Southeast  Level FlightAware Approximate
Sat 10:39:00 PM 29.4235 30.3605 53° Northeast  Level FlightAware Approximate
Sat 10:40:00 PM 29.5084 30.4906 53° Northeast  Level FlightAware Approximate
Sat 10:41:00 PM 29.5931 30.6209 53° Northeast  Level FlightAware Approximate
Sat 10:42:00 PM 29.6777 30.7514 53° Northeast  Level FlightAware Approximate
Sat 10:43:00 PM 29.7621 30.8822 53° Northeast  Level FlightAware Approximate
Sat 10:44:00 PM 29.8465 31.0132 53° Northeast  Level FlightAware Approximate
Sat 10:45:00 PM 29.9307 31.1444 53° Northeast  Level FlightAware Approximate
Sat 10:46:00 PM 30.0147 31.2758 54° Northeast  Level FlightAware Approximate
Sat 10:47:00 PM 30.0950 31.4100 63° Northeast  Level FlightAware Approximate
Sat 10:48:00 PM 30.1588 31.5561 63° Northeast  Level FlightAware Approximate
Sat 10:49:00 PM 30.2225 31.7023 63° Northeast  Level FlightAware Approximate
Sat 10:50:00 PM 30.2860 31.8488 63° Northeast  Level FlightAware Approximate
Sat 10:51:00 PM 30.3493 31.9954 63° Northeast  Level FlightAware Approximate
Sat 10:52:00 PM 30.4125 32.1422 63° Northeast  Level FlightAware Approximate
Sat 10:53:00 PM 30.4755 32.2892 64° Northeast  Level FlightAware Approximate
Sat 10:54:00 PM 30.5383 32.4364 64° Northeast  Level FlightAware Approximate
Sat 10:55:00 PM 30.6010 32.5838 64° Northeast  Level FlightAware Approximate
Sat 10:56:00 PM 30.6635 32.7313 64° Northeast  Level FlightAware Approximate
Sat 10:57:00 PM 30.7258 32.8791 64° Northeast  Level FlightAware Approximate
Sat 10:58:00 PM 30.7880 33.0270 64° Northeast  Level FlightAware Approximate
Sat 10:59:00 PM 30.8500 33.1752 64° Northeast  Level FlightAware Approximate
Sat 11:00:00 PM 30.9119 33.3235 64° Northeast  Level FlightAware Approximate
Sat 11:01:00 PM 30.9735 33.4720 64° Northeast  Level FlightAware Approximate
Sat 11:02:00 PM 31.0344 33.6210 74° East  Level FlightAware Approximate
Sat 11:03:00 PM 31.0903 33.7719 62° Northeast  Level FlightAware Approximate
Sat 11:04:00 PM 31.1556 33.9185 63° Northeast  Level FlightAware Approximate
Sat 11:05:00 PM 31.2145 34.0689 67° East  Level FlightAware Approximate
Sat 11:06:00 PM 31.2642 34.2236 74° East  Level FlightAware Approximate
Sat 11:07:00 PM 31.3263 34.3722 63° Northeast  Level FlightAware Approximate
Sat 11:08:00 PM 31.3886 34.5210 65° Northeast  Level FlightAware Approximate
Sat 11:09:00 PM 31.4489 34.6711 65° Northeast  Level FlightAware Approximate
Sat 11:10:00 PM 31.5091 34.8213 65° Northeast  Level FlightAware Approximate
Sat 11:11:00 PM 31.5691 34.9716 65° Northeast  Level FlightAware Approximate
Sat 11:12:00 PM 31.6289 35.1222 65° Northeast  Level FlightAware Approximate
Sat 11:13:00 PM 31.6891 35.2727 65° Northeast  Level FlightAware Approximate
Sat 11:14:00 PM 31.7522 35.4216 63° Northeast  Level FlightAware Approximate
Sat 11:15:00 PM 31.8139 35.5714 67° East  Level FlightAware Approximate
Sat 11:16:00 PM 31.8698 35.7245 65° Northeast  Level FlightAware Approximate
Sat 11:17:00 PM 31.9258 35.8774 69° East  Level FlightAware Approximate
Sat 11:18:00 PM 31.9667 35.9833 65° Northeast  Level FlightAware Approximate
Sat 11:19:00 PM 31.9727 35.9916 65° Northeast  Level Estimated
Sat 11:20:00 PM 31.9727 35.9916 65° Northeast  Level Estimated
Sat 11:21:00 PM 31.9727 35.9916 65° Northeast  Level Estimated
Sat 11:22:00 PM 31.9727 35.9916 65° Northeast  Level Estimated
Sat 11:23:00 PM 31.9727 35.9916 65° Northeast  Level Estimated
Sat 11:24:00 PM 31.9727 35.9916 65° Northeast  Level Estimated
Sat 11:25:00 PM 31.9727 35.9916 65° Northeast  Level Estimated
Sat 11:26:00 PM 31.9727 35.9916 65° Northeast  Level Estimated
Sat 11:27:00 PM 31.9727 35.9916 65° Northeast  Level Estimated
Sat 11:28:00 PM 31.9727 35.9916 65° Northeast  Level Estimated
Sat 11:29:00 PM 31.9727 35.9916 65° Northeast  Level Estimated
Sat 11:30:00 PM 31.9727 35.9916 65° Northeast  Level Estimated
Sat 11:31:00 PM 31.9727 35.9916 65° Northeast  Level Estimated
Sat 11:32:00 PM 31.9727 35.9916 65° Northeast  Level Estimated
Sat 11:33:00 PM 31.9727 35.9916 65° Northeast  Level Estimated
Sat 11:34:00 PM 31.9727 35.9916 65° Northeast  Level Estimated
Sat 11:35:00 PM 31.9727 35.9916 65° Northeast  Level Estimated
Sat 11:36:00 PM 31.9727 35.9916 65° Northeast  Level Estimated
Sat 11:37:00 PM 31.9727 35.9916 65° Northeast  Level Estimated
Sat 11:38:00 PM 31.9727 35.9916 65° Northeast  Level Estimated
Sat 11:39:00 PM 31.9727 35.9916 65° Northeast  Level Estimated
Sat 11:40:00 PM 31.9727 35.9916 65° Northeast  Level Estimated
Sat 11:41:00 PM 31.9727 35.9916 65° Northeast  Level Estimated

Login

Don't have an account? Register now (free) for customized features, flight alerts, and more!